Time;durP1;ratioP1;P1;durP2;ratioP2;P2;SDS_P1;SDS_P2;PMS_P1;PMS_P2;Temp;Humidity;BMP_temperature;BMP_pressure;BME280_temperature;BME280_humidity;BME280_pressure;Samples;Min_cycle;Max_cycle;Signal;HPM_P1;HPM_P2
2024/01/22 00:00:42;;;;;;;2.00;0.90;;;;;;;-8.60;76.88;97280.59;106703;1275;22793;-80
2024/01/22 00:03:30;;;;;;;2.20;0.90;;;;;;;-8.61;76.13;97291.77;106686;1275;25312;-80
2024/01/22 00:05:59;;;;;;;1.20;0.70;;;;;;;-8.63;76.25;97286.39;106641;1274;22896;-80
2024/01/22 00:08:27;;;;;;;1.50;0.70;;;;;;;-8.65;76.34;97287.59;106855;1274;24279;-80
2024/01/22 00:10:55;;;;;;;1.90;1.00;;;;;;;-8.77;75.62;97289.50;106607;1274;22540;-80
2024/01/22 00:13:23;;;;;;;3.50;0.80;;;;;;;-8.82;76.01;97295.20;106675;1274;22675;-80
2024/01/22 00:15:52;;;;;;;1.30;0.80;;;;;;;-8.81;76.60;97303.09;106732;1274;24224;-80
2024/01/22 00:18:20;;;;;;;1.50;0.80;;;;;;;-8.83;76.85;97313.34;106672;1274;23081;-80
2024/01/22 00:20:49;;;;;;;0.90;0.60;;;;;;;-8.97;75.92;97315.79;106698;1274;24205;-80
2024/01/22 00:23:17;;;;;;;2.70;1.10;;;;;;;-9.00;76.51;97316.39;106757;1274;22632;-80
2024/01/22 00:25:45;;;;;;;1.90;0.80;;;;;;;-8.95;76.88;97315.79;106675;1274;22529;-80
2024/01/22 00:28:13;;;;;;;2.30;1.10;;;;;;;-8.89;76.89;97317.12;106702;1274;22518;-80
2024/01/22 00:30:41;;;;;;;5.40;1.10;;;;;;;-8.86;77.00;97314.63;106830;1274;23774;-80
2024/01/22 00:33:10;;;;;;;0.90;0.60;;;;;;;-8.87;76.67;97317.27;106690;1275;24475;-80
2024/01/22 00:35:38;;;;;;;0.90;0.60;;;;;;;-8.99;76.38;97319.93;106667;1275;25479;-80
2024/01/22 00:38:06;;;;;;;2.10;0.80;;;;;;;-9.07;76.39;97316.70;106670;1271;24275;-80
2024/01/22 00:40:34;;;;;;;2.50;0.90;;;;;;;-9.00;77.27;97312.30;106604;1274;24199;-80
2024/01/22 00:43:03;;;;;;;6.10;3.80;;;;;;;-9.02;76.91;97314.39;106688;1274;22530;-80
2024/01/22 00:45:31;;;;;;;6.20;3.30;;;;;;;-8.98;77.31;97318.11;106715;1274;22539;-80
2024/01/22 00:47:59;;;;;;;7.50;4.10;;;;;;;-9.05;76.37;97316.33;106623;1274;24068;-80
2024/01/22 00:50:28;;;;;;;3.20;1.70;;;;;;;-9.07;76.94;97323.48;106712;1274;25490;-80
2024/01/22 00:52:56;;;;;;;3.70;2.00;;;;;;;-9.14;76.48;97329.03;106627;1274;22520;-80
2024/01/22 00:55:24;;;;;;;1.70;0.90;;;;;;;-9.19;76.71;97335.95;106963;1274;24664;-80
2024/01/22 00:57:53;;;;;;;0.80;0.60;;;;;;;-9.16;76.99;97334.84;106741;1274;24245;-80
2024/01/22 01:00:21;;;;;;;1.50;0.80;;;;;;;-9.21;76.74;97336.35;106677;1266;22537;-80
2024/01/22 01:02:50;;;;;;;3.10;1.00;;;;;;;-9.21;76.91;97338.64;106669;1274;22668;-80
2024/01/22 01:05:18;;;;;;;1.20;0.80;;;;;;;-9.19;77.30;97337.80;106814;1274;22521;-81
2024/01/22 01:07:46;;;;;;;1.60;0.70;;;;;;;-9.17;77.37;97328.98;106714;1271;25464;-80
2024/01/22 01:10:15;;;;;;;2.00;0.80;;;;;;;-9.21;77.06;97326.75;106709;1274;22556;-81
2024/01/22 01:12:43;;;;;;;3.10;1.00;;;;;;;-9.28;77.03;97324.23;106668;1274;22512;-80
2024/01/22 01:15:11;;;;;;;1.90;1.00;;;;;;;-9.34;77.16;97319.48;106736;1274;22655;-80
2024/01/22 01:17:39;;;;;;;1.80;1.00;;;;;;;-9.39;77.58;97323.33;106664;1274;22620;-80
2024/01/22 01:20:08;;;;;;;2.10;1.10;;;;;;;-9.42;77.31;97318.33;106698;1274;22636;-81
2024/01/22 01:22:37;;;;;;;2.30;0.70;;;;;;;-9.35;77.89;97317.20;106716;1269;25401;-81
2024/01/22 01:25:05;;;;;;;3.30;0.70;;;;;;;-9.36;77.28;97319.55;106689;1275;22531;-78
2024/01/22 01:27:33;;;;;;;3.30;1.00;;;;;;;-9.28;78.09;97322.23;106728;1274;22627;-78
2024/01/22 01:30:01;;;;;;;5.20;1.10;;;;;;;-9.17;78.31;97318.41;106726;1274;22763;-78
2024/01/22 01:32:30;;;;;;;16.80;6.60;;;;;;;-9.06;78.07;97315.41;106882;1274;22679;-79
2024/01/22 01:34:58;;;;;;;17.30;5.80;;;;;;;-9.09;77.01;97321.27;106685;1274;22732;-78
2024/01/22 01:37:26;;;;;;;3.30;1.00;;;;;;;-9.26;76.39;97323.13;106640;1263;25410;-80
2024/01/22 01:39:54;;;;;;;1.50;0.80;;;;;;;-9.28;77.04;97324.14;106677;1274;25431;-80
2024/01/22 01:42:23;;;;;;;2.10;0.80;;;;;;;-9.27;77.26;97321.45;106628;1274;25465;-79
2024/01/22 01:44:52;;;;;;;2.00;1.20;;;;;;;-9.24;77.38;97318.29;106637;1274;22945;-80
2024/01/22 01:47:21;;;;;;;2.00;0.90;;;;;;;-9.25;77.12;97319.23;106810;1274;22539;-80
2024/01/22 01:49:50;;;;;;;2.10;1.30;;;;;;;-9.29;77.09;97307.98;106617;1275;22528;-80
2024/01/22 01:52:19;;;;;;;3.00;1.70;;;;;;;-9.40;76.99;97302.11;106714;1274;22600;-80
2024/01/22 01:54:51;;;;;;;1.50;1.10;;;;;;;-9.49;77.54;97304.08;106729;1271;22759;-79
2024/01/22 01:57:22;;;;;;;1.60;0.70;;;;;;;-9.50;77.87;97302.70;106944;1274;22536;-80
2024/01/22 01:59:51;;;;;;;2.10;1.40;;;;;;;-9.44;78.23;97299.42;106819;1275;24351;-80
2024/01/22 02:02:20;;;;;;;2.50;1.20;;;;;;;-9.35;78.43;97297.64;107051;1275;22598;-80
2024/01/22 02:04:49;;;;;;;8.50;5.00;;;;;;;-9.38;78.50;97297.92;106990;1274;22654;-80
2024/01/22 02:07:17;;;;;;;17.30;7.80;;;;;;;-9.27;79.04;97299.47;106944;1274;22649;-80
2024/01/22 02:09:51;;;;;;;28.20;11.70;;;;;;;-9.24;77.95;97302.25;106702;1275;23546;-80
2024/01/22 02:12:19;;;;;;;4.30;1.90;;;;;;;-9.20;78.45;97301.44;106735;1274;22655;-80
2024/01/22 02:14:48;;;;;;;2.60;1.20;;;;;;;-9.18;78.03;97299.42;106812;1275;24137;-80
2024/01/22 02:17:16;;;;;;;0.90;0.60;;;;;;;-9.06;78.71;97307.38;106679;1274;24483;-80
2024/01/22 02:19:45;;;;;;;2.60;1.00;;;;;;;-8.95;78.39;97313.29;106610;1274;22733;-80
2024/01/22 02:22:14;;;;;;;4.30;1.50;;;;;;;-8.98;77.60;97312.13;106755;1274;24241;-80
2024/01/22 02:24:42;;;;;;;1.30;0.70;;;;;;;-9.08;77.36;97312.34;106635;1275;24354;-80
2024/01/22 02:27:10;;;;;;;1.50;0.80;;;;;;;-9.13;77.52;97310.70;106615;1275;22542;-80
2024/01/22 02:29:38;;;;;;;7.10;4.00;;;;;;;-9.15;77.54;97314.48;106868;1275;22614;-80
2024/01/22 02:32:07;;;;;;;41.30;18.60;;;;;;;-9.31;77.54;97318.28;106709;1274;25591;-79
2024/01/22 02:34:35;;;;;;;3.60;1.40;;;;;;;-9.40;77.08;97319.48;106785;1274;22602;-80
2024/01/22 02:37:03;;;;;;;3.10;0.70;;;;;;;-9.41;77.66;97319.81;106771;1274;25670;-80
2024/01/22 02:39:31;;;;;;;1.80;0.70;;;;;;;-9.31;78.12;97327.39;106743;1275;22664;-80
2024/01/22 02:41:59;;;;;;;2.80;0.60;;;;;;;-9.29;78.20;97328.66;106700;1272;22532;-80
2024/01/22 02:44:28;;;;;;;1.50;0.80;;;;;;;-9.25;78.27;97326.95;106741;1275;22535;-80
2024/01/22 02:46:56;;;;;;;0.90;0.40;;;;;;;-9.11;78.75;97317.20;106652;1274;25313;-80
2024/01/22 02:49:24;;;;;;;1.40;0.70;;;;;;;-9.07;78.19;97312.21;106723;1274;22569;-80
2024/01/22 02:51:53;;;;;;;7.60;3.20;;;;;;;-9.01;78.17;97309.81;106696;1274;24034;-79
2024/01/22 02:54:21;;;;;;;2.70;0.90;;;;;;;-9.04;77.40;97308.25;106640;1274;22528;-80
2024/01/22 02:56:49;;;;;;;10.30;4.40;;;;;;;-9.02;77.68;97303.78;106737;1274;22683;-80
2024/01/22 02:59:18;;;;;;;159.90;45.80;;;;;;;-9.03;77.38;97313.05;106659;1274;24373;-80
2024/01/22 03:01:47;;;;;;;111.50;35.50;;;;;;;-9.15;77.04;97318.59;106643;1274;25541;-80
2024/01/22 03:04:15;;;;;;;73.30;25.70;;;;;;;-9.29;76.45;97319.90;106675;1275;22520;-80
2024/01/22 03:06:44;;;;;;;10.80;5.30;;;;;;;-9.42;76.91;97316.95;106666;1275;22560;-80
2024/01/22 03:09:13;;;;;;;3.60;1.30;;;;;;;-9.36;77.99;97316.10;106668;1274;23113;-80
2024/01/22 03:11:41;;;;;;;2.40;0.80;;;;;;;-9.26;78.37;97312.17;106515;1275;24415;-80
2024/01/22 03:14:09;;;;;;;1.90;0.80;;;;;;;-9.09;78.53;97304.54;106692;1275;25645;-81
2024/01/22 03:16:37;;;;;;;1.50;0.60;;;;;;;-9.06;77.82;97305.70;106756;1274;22647;-81
2024/01/22 03:19:05;;;;;;;0.70;0.50;;;;;;;-9.03;77.55;97302.36;106613;1275;24247;-80
2024/01/22 03:21:34;;;;;;;1.50;0.80;;;;;;;-9.12;76.62;97297.69;106651;1274;22719;-80
2024/01/22 03:24:02;;;;;;;0.90;0.40;;;;;;;-9.23;76.69;97303.41;106678;1274;22521;-80
2024/01/22 03:26:31;;;;;;;2.70;1.00;;;;;;;-9.21;77.66;97294.52;106546;1275;25475;-80
2024/01/22 03:28:59;;;;;;;1.90;0.90;;;;;;;-9.18;77.25;97293.08;106626;1275;22543;-80
2024/01/22 03:31:32;;;;;;;2.00;0.70;;;;;;;-9.26;76.94;97297.70;106806;1274;24256;-80
2024/01/22 03:34:00;;;;;;;;;;;;;;;-9.35;76.80;97299.98;106706;1274;22523;-80
2024/01/22 03:36:29;;;;;;;1.50;0.50;;;;;;;-9.37;77.38;97291.34;106614;1274;24282;-80
2024/01/22 03:38:57;;;;;;;0.80;0.30;;;;;;;-9.30;77.69;97294.61;106925;1274;24277;-80
2024/01/22 03:41:25;;;;;;;1.30;0.70;;;;;;;-9.23;77.78;97299.95;106942;1274;24826;-80
2024/01/22 03:43:53;;;;;;;0.90;0.50;;;;;;;-9.31;76.94;97300.31;106625;1274;25448;-80
2024/01/22 03:46:21;;;;;;;0.90;0.40;;;;;;;-9.27;77.73;97296.20;106675;1275;25510;-80
2024/01/22 03:48:49;;;;;;;0.60;0.30;;;;;;;-9.28;77.09;97290.85;106639;1263;25571;-81
2024/01/22 03:51:18;;;;;;;2.80;1.70;;;;;;;-9.38;76.96;97297.23;106637;1275;25647;-80
2024/01/22 03:53:46;;;;;;;3.40;0.90;;;;;;;-9.37;77.86;97295.58;106709;1272;22531;-80
2024/01/22 03:56:18;;;;;;;0.40;0.30;;;;;;;-9.35;77.52;97295.77;106685;1275;22690;-80
2024/01/22 03:58:47;;;;;;;0.60;0.30;;;;;;;-9.25;78.37;97290.60;106851;1275;23130;-81
2024/01/22 04:01:22;;;;;;;1.20;0.40;;;;;;;-9.16;78.13;97293.80;106748;1274;22660;-81
2024/01/22 04:03:51;;;;;;;0.90;0.40;;;;;;;-9.03;77.97;97289.89;106645;1274;24366;-81
2024/01/22 04:06:20;;;;;;;0.70;0.50;;;;;;;-9.10;76.99;97293.88;106708;1275;22549;-80
2024/01/22 04:08:48;;;;;;;1.10;0.40;;;;;;;-9.15;77.09;97279.84;106966;1274;24227;-80
2024/01/22 04:11:17;;;;;;;0.30;0.30;;;;;;;-9.13;77.31;97277.16;107022;1275;23915;-80
2024/01/22 04:13:46;;;;;;;1.00;0.50;;;;;;;-9.23;76.79;97279.88;106799;1274;26896;-80
2024/01/22 04:16:14;;;;;;;1.30;0.70;;;;;;;-9.31;76.88;97279.17;106621;1274;22782;-80
2024/01/22 04:18:43;;;;;;;3.50;1.40;;;;;;;-9.31;77.38;97280.91;106709;1275;25502;-80
2024/01/22 04:21:12;;;;;;;6.50;3.30;;;;;;;-9.33;77.26;97292.13;106784;1275;23928;-80
2024/01/22 04:23:41;;;;;;;7.50;3.30;;;;;;;-9.39;76.85;97294.02;106634;1274;23670;-80
2024/01/22 04:26:09;;;;;;;2.00;0.90;;;;;;;-9.44;76.93;97294.46;106665;1275;24353;-80
2024/01/22 04:28:37;;;;;;;0.40;0.30;;;;;;;-9.33;77.65;97296.76;106683;1274;25548;-80
2024/01/22 04:31:06;;;;;;;1.20;0.60;;;;;;;-9.24;77.53;97292.23;106718;1275;28244;-80
2024/01/22 04:33:35;;;;;;;1.40;0.90;;;;;;;-9.24;77.08;97290.50;106728;1271;22530;-80
2024/01/22 04:36:04;;;;;;;0.70;0.50;;;;;;;-9.29;76.99;97295.05;106633;1275;22524;-80
2024/01/22 04:38:32;;;;;;;1.00;0.40;;;;;;;-9.33;76.99;97296.91;106710;1274;25586;-80
2024/01/22 04:41:01;;;;;;;14.60;6.50;;;;;;;-9.42;76.64;97291.73;106752;1275;22669;-80
2024/01/22 04:43:29;;;;;;;6.00;1.70;;;;;;;-9.50;76.64;97289.99;106633;1274;25692;-80
2024/01/22 04:45:57;;;;;;;2.20;0.90;;;;;;;-9.60;76.51;97294.80;106599;1274;22720;-80
2024/01/22 04:48:26;;;;;;;3.80;2.10;;;;;;;-9.60;77.77;97299.92;106663;1274;24286;-80
2024/01/22 04:50:54;;;;;;;0.30;0.30;;;;;;;-9.50;78.56;97296.00;106715;1274;24325;-80
2024/01/22 04:53:23;;;;;;;0.80;0.10;;;;;;;-9.37;78.43;97288.40;106663;1274;23335;-81
2024/01/22 04:55:51;;;;;;;1.10;0.80;;;;;;;-9.25;78.49;97285.34;106662;1274;24095;-81
2024/01/22 04:58:19;;;;;;;1.10;0.70;;;;;;;-9.18;77.85;97281.65;106620;1274;22683;-81
2024/01/22 05:00:47;;;;;;;0.90;0.70;;;;;;;-9.28;76.38;97279.16;107008;1274;24322;-81
2024/01/22 05:03:15;;;;;;;0.90;0.40;;;;;;;-9.27;77.63;97270.14;106862;1274;23297;-81
2024/01/22 05:05:44;;;;;;;1.30;0.80;;;;;;;-9.15;78.24;97269.00;106647;1275;22672;-81
2024/01/22 05:08:12;;;;;;;1.70;0.80;;;;;;;-9.08;77.42;97273.90;106620;1264;24265;-81
2024/01/22 05:10:41;;;;;;;1.60;0.90;;;;;;;-9.15;76.92;97269.20;106611;1275;25481;-80
2024/01/22 05:13:09;;;;;;;1.00;0.60;;;;;;;-9.26;76.24;97272.60;106639;1275;22525;-81
2024/01/22 05:15:37;;;;;;;58.00;21.40;;;;;;;-9.33;76.62;97280.20;106812;1274;22586;-80
2024/01/22 05:18:05;;;;;;;38.60;13.30;;;;;;;-9.46;76.64;97283.77;106974;1274;24263;-81
2024/01/22 05:20:34;;;;;;;1.30;0.60;;;;;;;-9.57;76.30;97283.54;106651;1275;22568;-81
2024/01/22 05:23:02;;;;;;;1.30;0.40;;;;;;;-9.58;76.87;97283.23;106711;1275;22522;-81
2024/01/22 05:25:30;;;;;;;0.60;0.30;;;;;;;-9.54;77.35;97285.98;106629;1274;25300;-80
2024/01/22 05:27:58;;;;;;;0.60;0.40;;;;;;;-9.43;77.98;97284.69;106629;1275;22937;-80
2024/01/22 05:30:27;;;;;;;0.60;0.60;;;;;;;-9.35;77.53;97283.44;106731;1274;22725;-81
2024/01/22 05:32:55;;;;;;;8.10;3.70;;;;;;;-9.45;76.98;97283.52;106636;1274;22530;-80
2024/01/22 05:35:23;;;;;;;1.90;1.30;;;;;;;-9.52;76.99;97282.83;106661;1275;25543;-80
2024/01/22 05:37:51;;;;;;;7.60;4.50;;;;;;;-9.55;77.32;97282.08;106683;1275;22584;-80
2024/01/22 05:40:20;;;;;;;16.20;6.80;;;;;;;-9.53;77.63;97273.42;106754;1274;22580;-80
2024/01/22 05:42:48;;;;;;;2.60;1.80;;;;;;;-9.52;77.45;97272.86;106652;1274;24240;-80
2024/01/22 05:45:16;;;;;;;0.90;0.30;;;;;;;-9.43;77.99;97271.92;106710;1274;22697;-80
2024/01/22 05:47:45;;;;;;;0.80;0.50;;;;;;;-9.31;78.14;97266.22;106733;1264;24266;-80
2024/01/22 05:50:14;;;;;;;1.20;0.70;;;;;;;-9.26;77.54;97265.80;106677;1275;25563;-81
2024/01/22 05:52:42;;;;;;;0.90;0.50;;;;;;;-9.35;76.79;97268.48;106701;1274;22581;-80
2024/01/22 05:55:10;;;;;;;1.80;0.90;;;;;;;-9.46;76.43;97273.83;106658;1275;24404;-80
2024/01/22 05:57:39;;;;;;;22.10;7.50;;;;;;;-9.61;76.15;97273.46;106693;1275;28190;-80
2024/01/22 06:00:13;;;;;;;27.30;8.90;;;;;;;-9.71;77.31;97271.95;106761;1275;22712;-80
2024/01/22 06:02:42;;;;;;;27.60;9.40;;;;;;;-9.68;77.62;97268.98;106837;1274;22730;-80
2024/01/22 06:05:12;;;;;;;2.50;1.40;;;;;;;-9.72;77.62;97268.09;106658;1274;24228;-80
2024/01/22 06:07:40;;;;;;;2.00;0.80;;;;;;;-9.66;78.06;97275.70;107028;1275;24080;-79
2024/01/22 06:10:09;;;;;;;1.60;0.50;;;;;;;-9.69;77.77;97273.59;106902;1274;22566;-81
2024/01/22 06:12:37;;;;;;;1.50;0.50;;;;;;;-9.71;77.54;97275.53;106837;1274;22567;-82
2024/01/22 06:15:06;;;;;;;4.70;1.50;;;;;;;-9.70;77.60;97280.15;106708;1274;24111;-84
2024/01/22 06:17:35;;;;;;;8.00;2.80;;;;;;;-9.55;78.74;97283.67;106735;1274;27430;-83
2024/01/22 06:20:04;;;;;;;5.00;1.70;;;;;;;-9.51;78.03;97283.48;106756;1275;24199;-83
2024/01/22 06:22:33;;;;;;;13.00;5.00;;;;;;;-9.41;78.61;97280.80;106831;1274;25467;-81
2024/01/22 06:25:03;;;;;;;5.40;2.10;;;;;;;-9.28;78.51;97281.16;107013;1274;22584;-81
2024/01/22 06:27:33;;;;;;;5.70;2.30;;;;;;;-9.28;77.99;97277.11;106801;1263;22605;-82
2024/01/22 06:30:03;;;;;;;13.10;5.00;;;;;;;-9.19;78.19;97276.34;106661;1275;22741;-82
2024/01/22 06:32:31;;;;;;;6.70;2.00;;;;;;;-9.26;77.28;97285.04;106788;1274;22676;-82
2024/01/22 06:35:00;;;;;;;18.50;11.50;;;;;;;-9.35;77.38;97296.09;106711;1275;24259;-81
2024/01/22 06:37:28;;;;;;;9.10;4.00;;;;;;;-9.42;77.22;97298.05;106841;1274;22612;-81
2024/01/22 06:40:00;;;;;;;51.00;25.90;;;;;;;-9.50;77.41;97295.67;106782;1274;25180;-81
2024/01/22 06:42:29;;;;;;;10.00;3.90;;;;;;;-9.40;77.85;97302.27;106746;1274;22564;-80
2024/01/22 06:45:07;;;;;;;2.20;0.80;;;;;;;-9.25;77.95;97291.80;106673;1274;22651;-79
2024/01/22 06:47:37;;;;;;;48.50;19.20;;;;;;;-9.11;77.88;97274.24;107015;1274;25642;-80
2024/01/22 06:50:06;;;;;;;5.20;2.10;;;;;;;-9.08;77.69;97270.57;106663;1274;22785;-82
2024/01/22 06:52:36;;;;;;;22.90;11.60;;;;;;;-8.92;78.26;97275.82;106701;1274;22573;-81
2024/01/22 06:55:05;;;;;;;34.90;14.90;;;;;;;-8.80;78.10;97279.18;106743;1274;22530;-79
2024/01/22 06:57:34;;;;;;;7.70;3.70;;;;;;;-8.63;78.09;97279.05;106731;1274;24466;-79
2024/01/22 07:00:07;;;;;;;2.40;0.80;;;;;;;-8.49;78.26;97282.04;106729;1274;25249;-79
2024/01/22 07:02:42;;;;;;;44.40;20.50;;;;;;;-8.40;77.31;97278.00;106835;1274;22536;-79
2024/01/22 07:05:10;;;;;;;98.50;48.30;;;;;;;-8.29;77.60;97276.61;106668;1267;22534;-81
2024/01/22 07:07:40;;;;;;;74.10;35.50;;;;;;;-8.17;77.19;97279.10;106939;1275;22524;-82
2024/01/22 07:10:09;;;;;;;52.10;26.40;;;;;;;-8.07;76.91;97288.12;106693;1275;22538;-79
2024/01/22 07:12:41;;;;;;;2.80;1.40;;;;;;;-8.07;76.32;97282.27;107018;1275;22718;-79
2024/01/22 07:15:12;;;;;;;5.60;2.80;;;;;;;-8.19;76.07;97283.55;107009;1273;22550;-79
2024/01/22 07:17:42;;;;;;;28.70;12.60;;;;;;;-8.23;76.73;97289.89;107084;1270;22550;-78
2024/01/22 07:20:17;;;;;;;82.40;30.00;;;;;;;-8.10;77.49;97284.92;107182;1273;24072;-79
2024/01/22 07:22:45;;;;;;;74.50;31.50;;;;;;;-7.82;77.54;97281.84;107123;1273;23918;-78
2024/01/22 07:25:17;;;;;;;36.30;16.90;;;;;;;-7.57;76.96;97280.56;106995;1273;22546;-77
2024/01/22 07:27:45;;;;;;;31.50;17.00;;;;;;;-7.37;76.25;97275.82;107044;1273;22716;-77
2024/01/22 07:30:14;;;;;;;27.60;13.10;;;;;;;-7.14;76.04;97277.73;107077;1273;25504;-78
2024/01/22 07:32:44;;;;;;;32.00;15.90;;;;;;;-6.90;75.86;97271.67;106834;1273;22520;-80
2024/01/22 07:35:13;;;;;;;21.80;8.80;;;;;;;-6.70;75.46;97267.98;107062;1273;22596;-79
2024/01/22 07:37:46;;;;;;;23.70;12.00;;;;;;;-6.57;73.87;97264.51;107096;1273;22526;-82
2024/01/22 07:40:16;;;;;;;29.90;15.70;;;;;;;-6.50;73.39;97262.13;107252;1273;22538;-82
2024/01/22 07:42:46;;;;;;;18.00;8.40;;;;;;;-6.43;73.06;97251.52;107140;1273;23295;-81
2024/01/22 07:45:15;;;;;;;18.70;8.60;;;;;;;-6.29;73.04;97249.60;107159;1273;23261;-81
2024/01/22 07:47:44;;;;;;;22.40;12.50;;;;;;;-6.07;73.73;97243.61;106942;1273;24103;-82
2024/01/22 07:50:14;;;;;;;19.90;11.90;;;;;;;-5.85;73.78;97242.09;107170;1273;22618;-82
2024/01/22 07:52:43;;;;;;;17.40;8.80;;;;;;;-5.61;73.66;97236.35;107191;1273;22611;-82
2024/01/22 07:55:17;;;;;;;19.50;8.10;;;;;;;-5.39;73.55;97229.79;107164;1273;22520;-79
2024/01/22 07:57:46;;;;;;;26.60;15.60;;;;;;;-5.17;73.41;97230.77;107194;1273;25019;-81
2024/01/22 08:00:14;;;;;;;20.50;10.30;;;;;;;-4.93;73.24;97223.14;107168;1273;24091;-82
2024/01/22 08:02:43;;;;;;;17.30;10.60;;;;;;;-4.76;71.25;97217.78;107205;1273;25607;-83
2024/01/22 08:05:13;;;;;;;11.80;5.70;;;;;;;-4.62;71.48;97207.17;107055;1273;22610;-81
2024/01/22 08:07:43;;;;;;;12.60;6.00;;;;;;;-4.44;71.21;97204.56;107259;1273;22526;-82
2024/01/22 08:10:14;;;;;;;12.70;6.60;;;;;;;-4.30;70.57;97204.42;107054;1263;22515;-81
2024/01/22 08:12:42;;;;;;;12.40;6.70;;;;;;;-4.16;70.23;97201.70;107349;1273;25291;-82
2024/01/22 08:15:14;;;;;;;13.90;6.20;;;;;;;-4.07;68.03;97198.83;107025;1273;25411;-83
2024/01/22 08:17:48;;;;;;;14.60;7.40;;;;;;;-3.92;69.32;97198.62;107114;1273;25425;-80
2024/01/22 08:20:19;;;;;;;37.00;12.80;;;;;;;-3.73;69.61;97186.52;107241;1273;22528;-84
2024/01/22 08:22:48;;;;;;;78.30;22.90;;;;;;;-3.55;69.12;97189.69;107241;1273;24378;-84
2024/01/22 08:25:27;;;;;;;81.10;26.50;;;;;;;-3.40;68.95;97192.64;106974;1273;25535;-80
2024/01/22 08:27:56;;;;;;;55.30;17.20;;;;;;;-3.26;68.54;97191.77;107070;1273;25412;-81
2024/01/22 08:30:25;;;;;;;29.00;9.90;;;;;;;-3.23;66.75;97190.56;107056;1273;22635;-81
2024/01/22 08:32:54;;;;;;;33.30;13.90;;;;;;;-3.40;67.13;97189.95;106988;1273;22599;-80
2024/01/22 08:35:22;;;;;;;20.30;9.90;;;;;;;-3.52;67.79;97194.52;106800;1273;24496;-80
2024/01/22 08:37:52;;;;;;;27.10;12.30;;;;;;;-3.58;68.33;97197.98;106922;1273;25589;-83
2024/01/22 08:40:22;;;;;;;26.40;11.00;;;;;;;-3.65;68.04;97190.10;106999;1273;22521;-81
2024/01/22 08:42:54;;;;;;;25.70;11.80;;;;;;;-3.73;68.10;97183.29;106931;1267;22535;-81
2024/01/22 08:45:23;;;;;;;36.90;15.50;;;;;;;-3.67;68.40;97183.77;107066;1274;22536;-82
2024/01/22 08:47:52;;;;;;;24.80;9.80;;;;;;;-3.55;68.41;97181.46;107366;1274;26677;-79
2024/01/22 08:50:23;;;;;;;29.90;11.40;;;;;;;-3.42;68.51;97178.44;107135;1270;22683;-80
2024/01/22 08:52:54;;;;;;;23.80;8.90;;;;;;;-3.29;68.35;97173.90;106786;1274;22653;-80
2024/01/22 08:55:23;;;;;;;43.30;16.20;;;;;;;-3.20;68.87;97171.49;106904;1274;22566;-79
2024/01/22 08:57:53;;;;;;;66.20;19.20;;;;;;;-3.05;68.59;97165.34;106912;1274;22527;-80
2024/01/22 09:00:23;;;;;;;40.80;13.80;;;;;;;-2.90;68.15;97164.34;106837;1274;22531;-80
2024/01/22 09:02:52;;;;;;;21.30;8.30;;;;;;;-2.71;67.78;97159.54;106925;1274;22519;-79
2024/01/22 09:05:21;;;;;;;30.70;9.60;;;;;;;-2.50;67.20;97160.90;106850;1274;25312;-78
2024/01/22 09:07:49;;;;;;;21.90;8.70;;;;;;;-2.36;67.42;97153.95;106910;1274;23280;-80
2024/01/22 09:10:17;;;;;;;20.80;7.30;;;;;;;-2.30;67.50;97156.33;106762;1274;24295;-79
2024/01/22 09:12:49;;;;;;;26.50;8.40;;;;;;;-2.25;67.23;97158.23;106927;1274;22628;-79
2024/01/22 09:15:17;;;;;;;18.70;7.50;;;;;;;-2.08;67.58;97155.15;106983;1274;22527;-78
2024/01/22 09:17:47;;;;;;;17.60;7.10;;;;;;;-1.92;66.24;97150.00;107193;1274;25344;-78
2024/01/22 09:20:16;;;;;;;18.50;6.50;;;;;;;-1.81;64.58;97145.05;106848;1268;22532;-81
2024/01/22 09:22:44;;;;;;;17.60;11.60;;;;;;;-1.71;64.08;97143.54;106909;1274;25420;-80
2024/01/22 09:25:12;;;;;;;10.80;5.80;;;;;;;-1.59;64.52;97135.21;106773;1274;25452;-80
2024/01/22 09:27:40;;;;;;;17.80;8.90;;;;;;;-1.49;64.99;97131.94;106860;1268;22524;-81
2024/01/22 09:30:08;;;;;;;9.30;4.30;;;;;;;-1.34;64.49;97128.38;107039;1274;22676;-81
2024/01/22 09:32:37;;;;;;;14.50;7.70;;;;;;;-1.19;64.14;97121.90;106957;1274;24212;-78
2024/01/22 09:35:06;;;;;;;10.30;5.60;;;;;;;-1.07;62.90;97115.27;106827;1274;25275;-79
2024/01/22 09:37:34;;;;;;;14.50;7.10;;;;;;;-0.99;63.46;97114.26;106891;1274;22532;-80
2024/01/22 09:40:03;;;;;;;16.90;7.50;;;;;;;-0.82;63.49;97110.10;107085;1274;24388;-84
2024/01/22 09:42:32;;;;;;;25.00;8.80;;;;;;;-0.68;61.38;97107.89;106748;1274;25561;-79
2024/01/22 09:45:02;;;;;;;17.20;6.30;;;;;;;-0.51;61.92;97102.15;106863;1274;22532;-81
2024/01/22 09:47:31;;;;;;;6.80;3.60;;;;;;;-0.36;62.44;97101.09;106988;1267;22523;-82
2024/01/22 09:49:59;;;;;;;13.00;6.00;;;;;;;-0.23;60.95;97100.20;106829;1274;22527;-79
2024/01/22 09:52:28;;;;;;;11.00;5.50;;;;;;;-0.04;60.11;97101.39;106997;1274;24193;-79
2024/01/22 09:54:58;;;;;;;9.60;5.10;;;;;;;0.12;59.66;97104.59;106878;1274;22634;-79
2024/01/22 09:57:31;;;;;;;9.90;5.60;;;;;;;0.29;59.41;97106.05;106709;1273;22538;-79
2024/01/22 10:00:01;;;;;;;7.00;4.40;;;;;;;0.34;59.05;97099.70;106756;1274;22930;-79
2024/01/22 10:02:40;;;;;;;9.80;5.40;;;;;;;0.53;59.70;97098.46;106751;1274;24314;-80
2024/01/22 10:05:09;;;;;;;5.40;3.20;;;;;;;0.65;58.94;97090.33;106722;1274;23908;-81
2024/01/22 10:07:37;;;;;;;3.30;2.40;;;;;;;0.78;57.27;97086.03;106791;1274;22648;-81
2024/01/22 10:10:06;;;;;;;6.20;2.90;;;;;;;1.04;56.90;97078.98;106749;1274;24407;-80
2024/01/22 10:13:02;;;;;;;3.90;2.60;;;;;;;1.44;55.72;97073.02;106620;1274;22523;-80
2024/01/22 10:15:32;;;;;;;5.20;3.60;;;;;;;2.01;54.94;97072.48;106836;1274;22574;-80
2024/01/22 10:18:07;;;;;;;4.90;3.50;;;;;;;2.50;54.05;97072.71;106781;1274;25270;-80
2024/01/22 10:20:36;;;;;;;5.40;3.40;;;;;;;2.78;51.15;97067.98;106762;1274;22652;-80
2024/01/22 10:23:04;;;;;;;5.60;3.60;;;;;;;3.24;51.79;97061.94;106767;1275;22523;-80
2024/01/22 10:25:33;;;;;;;8.30;4.60;;;;;;;3.64;50.15;97059.39;106778;1274;25351;-80
2024/01/22 10:28:17;;;;;;;6.00;3.90;;;;;;;4.04;49.56;97055.75;106924;1270;22520;-80
2024/01/22 10:31:01;;;;;;;12.10;6.90;;;;;;;4.59;47.99;97045.31;106927;1274;24354;-80
2024/01/22 10:33:30;;;;;;;12.90;7.10;;;;;;;4.94;47.21;97042.27;106866;1274;22645;-80
2024/01/22 10:36:14;;;;;;;11.60;8.10;;;;;;;5.21;47.05;97033.37;107083;1274;24279;-80
2024/01/22 10:38:47;;;;;;;12.10;7.40;;;;;;;5.59;45.57;97029.95;106958;1274;24247;-80
2024/01/22 10:41:24;;;;;;;5.50;3.30;;;;;;;6.01;44.08;97026.56;106779;1251;22536;-80
2024/01/22 10:43:55;;;;;;;4.30;2.90;;;;;;;6.51;45.23;97026.39;106795;1274;22529;-80
2024/01/22 10:46:24;;;;;;;5.00;3.50;;;;;;;6.84;43.39;97014.62;106751;1274;22560;-80
2024/01/22 10:48:56;;;;;;;6.40;3.80;;;;;;;6.96;42.19;97017.83;106738;1267;23895;-80
2024/01/22 10:51:25;;;;;;;5.70;3.80;;;;;;;7.35;42.38;97013.06;106749;1274;22526;-80
2024/01/22 10:53:54;;;;;;;6.30;3.60;;;;;;;7.70;41.13;97011.36;106421;1274;430322;-79
2024/01/22 10:56:25;;;;;;;10.50;4.70;;;;;;;7.66;40.23;97007.79;106692;1274;22523;-80
2024/01/22 10:58:56;;;;;;;5.80;4.20;;;;;;;7.88;40.10;97004.27;106703;1274;25307;-80
2024/01/22 11:01:25;;;;;;;15.70;10.10;;;;;;;7.69;39.82;97005.56;106743;1274;24252;-80
2024/01/22 11:03:57;;;;;;;8.90;5.90;;;;;;;7.65;40.30;97008.84;106713;1274;22572;-80
2024/01/22 11:06:32;;;;;;;8.60;5.30;;;;;;;7.81;39.88;97008.02;106703;1274;22676;-80
2024/01/22 11:09:04;;;;;;;8.90;5.70;;;;;;;7.63;39.97;97006.00;106717;1274;22523;-80
2024/01/22 11:11:35;;;;;;;15.90;10.40;;;;;;;7.35;39.87;97003.61;106735;1274;22524;-80
2024/01/22 11:14:03;;;;;;;12.60;8.30;;;;;;;7.64;40.02;97000.05;106806;1274;25368;-79
2024/01/22 11:16:32;;;;;;;26.50;15.90;;;;;;;7.63;39.61;96996.02;106620;1274;22671;-80
2024/01/22 11:19:02;;;;;;;18.00;11.70;;;;;;;7.56;39.50;96996.44;106733;1274;24480;-79
2024/01/22 11:21:37;;;;;;;31.40;22.20;;;;;;;7.41;39.27;96996.18;106718;1274;25250;-80
2024/01/22 11:24:10;;;;;;;19.80;11.30;;;;;;;7.56;40.08;96989.27;106736;1267;24073;-80
2024/01/22 11:27:03;;;;;;;16.60;8.60;;;;;;;7.43;39.66;96983.80;106709;1274;24372;-79
2024/01/22 11:29:33;;;;;;;12.80;8.20;;;;;;;7.37;40.45;96976.52;106917;1274;22523;-79
2024/01/22 11:32:26;;;;;;;12.30;8.70;;;;;;;7.23;39.91;96974.89;106726;1274;22520;-79